Time;durP1;ratioP1;P1;durP2;ratioP2;P2;SDS_P1;SDS_P2;PMS_P1;PMS_P2;Temp;Humidity;BMP_temperature;BMP_pressure;BME280_temperature;BME280_humidity;BME280_pressure;Samples;Min_cycle;Max_cycle;Signal;HPM_P1;HPM_P2
2022/07/10 00:01:20;;;;;;;5.63;3.22;;;;;;;16.28;82.54;100437.00;10459571;28;20068;-73
2022/07/10 00:06:22;;;;;;;6.05;4.13;;;;;;;16.20;83.10;100437.81;10484157;28;20052;-73
2022/07/10 00:11:24;;;;;;;6.07;3.60;;;;;;;16.13;83.83;100428.34;10468641;28;20049;-73
2022/07/10 00:16:27;;;;;;;7.20;3.15;;;;;;;16.11;83.90;100433.41;10479813;28;20443;-73
2022/07/10 00:21:30;;;;;;;4.72;3.35;;;;;;;16.09;84.50;100432.91;10476297;28;20428;-73
2022/07/10 00:26:32;;;;;;;5.28;3.35;;;;;;;16.10;84.74;100431.78;10468020;28;20083;-73
2022/07/10 00:31:34;;;;;;;5.60;3.92;;;;;;;16.16;84.69;100436.03;10442993;28;20530;-73
2022/07/10 00:36:36;;;;;;;4.97;3.90;;;;;;;16.22;84.80;100431.97;10449908;28;20523;-73
2022/07/10 00:41:38;;;;;;;8.00;4.20;;;;;;;16.24;84.40;100435.22;10467648;28;20515;-73
2022/07/10 00:46:41;;;;;;;4.40;3.53;;;;;;;16.24;84.69;100441.56;10482852;28;20423;-73
2022/07/10 00:51:44;;;;;;;5.38;3.55;;;;;;;16.31;84.13;100420.88;10470194;28;20041;-74
2022/07/10 00:56:48;;;;;;;4.88;3.58;;;;;;;16.25;84.49;100440.44;10463738;28;20045;-74
2022/07/10 01:01:50;;;;;;;5.90;3.95;;;;;;;16.18;84.23;100439.28;10462440;28;20041;-73
2022/07/10 01:06:53;;;;;;;7.05;4.30;;;;;;;16.24;84.38;100440.75;10458794;28;20044;-73
2022/07/10 01:11:56;;;;;;;4.95;3.60;;;;;;;16.21;84.76;100438.63;10480547;28;20057;-73
2022/07/10 01:16:59;;;;;;;6.55;3.47;;;;;;;16.21;83.97;100433.09;10466414;28;20042;-73
2022/07/10 01:22:01;;;;;;;5.57;3.47;;;;;;;16.21;84.57;100430.34;10484394;28;20052;-73
2022/07/10 01:27:04;;;;;;;5.22;3.25;;;;;;;16.26;84.49;100433.75;10454940;28;20053;-73
2022/07/10 01:32:07;;;;;;;8.10;3.50;;;;;;;16.31;84.58;100434.72;10477359;28;20079;-73
2022/07/10 01:37:09;;;;;;;4.00;3.20;;;;;;;16.32;84.43;100439.97;10501011;28;20041;-73
2022/07/10 01:42:11;;;;;;;4.95;3.63;;;;;;;16.42;84.55;100436.84;10488243;28;20052;-74
2022/07/10 01:47:13;;;;;;;7.43;3.70;;;;;;;16.43;84.03;100438.50;10488819;28;20048;-73
2022/07/10 01:52:16;;;;;;;4.15;3.63;;;;;;;16.50;83.89;100438.03;10487985;28;20049;-73
2022/07/10 01:57:18;;;;;;;7.10;3.30;;;;;;;16.49;83.93;100447.47;10468634;28;20411;-73
2022/07/10 02:02:21;;;;;;;7.13;3.90;;;;;;;16.50;84.13;100438.03;10489073;28;20060;-74
2022/07/10 02:07:25;;;;;;;5.30;3.17;;;;;;;16.49;84.79;100437.19;10488388;28;20037;-74
2022/07/10 02:12:28;;;;;;;6.70;3.72;;;;;;;16.40;85.45;100430.84;10483232;28;20044;-73
2022/07/10 02:17:30;;;;;;;5.45;3.63;;;;;;;16.34;86.44;100439.63;10487554;28;20033;-73
2022/07/10 02:22:32;;;;;;;4.63;3.65;;;;;;;16.26;86.59;100421.84;10489068;28;20446;-73
2022/07/10 02:27:35;;;;;;;7.72;3.47;;;;;;;16.15;86.86;100428.88;10489027;28;20515;-73
2022/07/10 02:32:37;;;;;;;5.25;4.07;;;;;;;16.13;87.29;100417.28;10468894;28;20388;-73
2022/07/10 02:37:39;;;;;;;5.28;4.00;;;;;;;16.04;87.89;100403.44;10453746;28;20056;-73
2022/07/10 02:42:42;;;;;;;5.35;3.80;;;;;;;15.93;88.22;100400.16;10486211;28;20061;-73
2022/07/10 02:47:44;;;;;;;5.40;4.40;;;;;;;15.87;87.83;100404.22;10436059;28;20523;-73
2022/07/10 02:52:46;;;;;;;5.47;3.70;;;;;;;15.79;88.22;100409.72;10469721;28;20511;-73
2022/07/10 02:57:49;;;;;;;5.13;4.03;;;;;;;15.80;88.99;100408.63;10478909;28;20110;-73
2022/07/10 03:02:52;;;;;;;5.13;3.90;;;;;;;15.85;89.44;100417.56;10486950;28;20450;-73
2022/07/10 03:07:54;;;;;;;4.38;3.90;;;;;;;15.97;89.34;100412.22;10485445;28;20052;-73
2022/07/10 03:12:57;;;;;;;6.50;3.83;;;;;;;16.01;89.51;100409.63;10474297;28;20049;-73
2022/07/10 03:17:59;;;;;;;4.93;3.85;;;;;;;16.02;89.55;100397.41;10457791;28;20173;-73
2022/07/10 03:23:01;;;;;;;6.22;3.78;;;;;;;16.11;89.65;100398.22;10459295;28;20516;-73
2022/07/10 03:28:04;;;;;;;6.75;4.07;;;;;;;16.18;89.42;100397.75;10455643;28;20054;-73
2022/07/10 03:33:06;;;;;;;7.28;4.95;;;;;;;16.16;89.17;100417.47;10448754;28;20053;-73
2022/07/10 03:38:09;;;;;;;8.60;4.70;;;;;;;16.23;89.32;100408.66;10448753;28;20507;-73
2022/07/10 03:43:11;;;;;;;6.43;5.15;;;;;;;16.24;89.30;100407.53;10470558;28;20060;-73
2022/07/10 03:48:13;;;;;;;7.03;5.28;;;;;;;16.19;89.53;100400.19;10482313;28;20048;-73
2022/07/10 03:53:15;;;;;;;8.93;5.90;;;;;;;16.25;89.89;100395.31;10473254;28;20056;-73
2022/07/10 03:58:18;;;;;;;8.02;5.47;;;;;;;16.27;89.93;100401.34;10483524;28;20041;-73
2022/07/10 04:03:20;;;;;;;10.70;6.03;;;;;;;16.33;90.09;100407.53;10467754;28;20037;-73
2022/07/10 04:08:23;;;;;;;9.63;7.10;;;;;;;16.35;89.88;100408.84;10483697;28;20052;-73
2022/07/10 04:13:25;;;;;;;11.05;6.25;;;;;;;16.42;90.26;100420.25;10462735;28;20052;-73
2022/07/10 04:18:27;;;;;;;8.18;6.50;;;;;;;16.71;90.14;100413.25;10478203;28;20081;-73
2022/07/10 04:23:30;;;;;;;9.95;7.35;;;;;;;16.94;90.10;100424.97;10475941;28;20037;-73
2022/07/10 04:28:32;;;;;;;9.93;6.75;;;;;;;17.08;89.47;100426.41;10484677;28;20064;-73
2022/07/10 04:33:34;;;;;;;8.55;7.15;;;;;;;17.48;88.26;100426.09;10435043;28;20041;-73
2022/07/10 04:38:37;;;;;;;9.43;6.55;;;;;;;17.57;86.44;100431.63;10475776;28;20392;-73
2022/07/10 04:43:39;;;;;;;9.40;6.55;;;;;;;17.75;85.31;100445.13;10465491;28;20419;-73
2022/07/10 04:48:42;;;;;;;12.77;6.95;;;;;;;17.89;84.54;100433.78;10475128;28;20044;-73
2022/07/10 04:53:44;;;;;;;10.35;6.00;;;;;;;18.10;82.83;100436.59;10492876;28;20419;-73
2022/07/10 04:58:51;;;;;;;8.95;6.63;;;;;;;18.14;82.54;100440.31;10490966;28;20045;-74
2022/07/10 05:03:54;;;;;;;10.32;6.78;;;;;;;18.15;81.91;100441.94;10472168;28;20638;-73
2022/07/10 05:08:56;;;;;;;8.90;6.85;;;;;;;18.19;81.75;100442.88;10472937;28;20622;-73
2022/07/10 05:13:59;;;;;;;7.50;5.38;;;;;;;18.53;81.31;100452.13;10490000;28;20499;-73
2022/07/10 05:19:02;;;;;;;8.18;5.95;;;;;;;18.79;80.93;100455.53;10486674;28;20044;-73
2022/07/10 05:24:05;;;;;;;6.93;5.50;;;;;;;18.82;79.12;100451.25;10487474;28;20051;-73
2022/07/10 05:29:07;;;;;;;5.60;4.07;;;;;;;19.30;78.11;100458.16;10468355;28;20048;-73
2022/07/10 05:34:10;;;;;;;7.13;4.80;;;;;;;19.41;77.64;100449.00;10471301;28;20062;-73
2022/07/10 05:39:12;;;;;;;6.45;4.22;;;;;;;19.54;75.12;100449.88;10488014;28;20056;-73
2022/07/10 05:44:19;;;;;;;4.70;3.55;;;;;;;19.84;73.34;100456.03;10445015;28;20056;-73
2022/07/10 05:49:21;;;;;;;3.20;2.60;;;;;;;19.86;71.13;100448.97;10469105;28;20515;-73
2022/07/10 05:54:23;;;;;;;3.55;2.83;;;;;;;19.89;70.84;100436.31;10471053;28;20041;-73
2022/07/10 05:59:33;;;;;;;3.20;2.15;;;;;;;19.75;69.02;100435.84;10489294;28;20045;-73
2022/07/10 06:04:35;;;;;;;2.72;2.38;;;;;;;19.55;69.19;100443.94;10443801;28;20041;-74
2022/07/10 06:09:38;;;;;;;4.50;2.15;;;;;;;19.29;69.11;100446.22;10469321;28;20423;-73
2022/07/10 06:14:41;;;;;;;3.60;2.35;;;;;;;19.16;70.18;100448.13;10472931;28;20408;-73
2022/07/10 06:19:44;;;;;;;4.05;2.58;;;;;;;19.11;69.84;100447.56;10451248;28;20053;-73
2022/07/10 06:24:46;;;;;;;4.25;2.90;;;;;;;19.21;70.93;100444.31;10463469;28;20042;-74
2022/07/10 06:29:50;;;;;;;4.40;2.95;;;;;;;19.42;70.39;100447.84;10452813;28;20041;-73
2022/07/10 06:34:53;;;;;;;3.45;3.05;;;;;;;19.61;69.77;100446.50;10460469;28;20037;-73
2022/07/10 06:39:55;;;;;;;3.97;3.55;;;;;;;19.73;70.49;100450.09;10461003;28;20057;-73
2022/07/10 06:44:57;;;;;;;4.10;3.70;;;;;;;19.83;70.32;100454.41;10446551;28;20045;-73
2022/07/10 06:50:01;;;;;;;6.20;4.55;;;;;;;19.99;70.73;100437.81;10472667;28;20045;-73
2022/07/10 06:55:04;;;;;;;5.90;3.90;;;;;;;20.15;70.63;100450.69;10469613;28;20434;-74
2022/07/10 07:00:07;;;;;;;4.22;3.60;;;;;;;20.20;68.74;100441.28;10464894;28;20041;-73
2022/07/10 07:05:10;;;;;;;4.20;3.72;;;;;;;20.13;69.32;100441.03;10428317;28;20045;-73
2022/07/10 07:10:12;;;;;;;5.13;3.58;;;;;;;20.22;70.15;100446.50;10484054;28;20065;-74
2022/07/10 07:15:16;;;;;;;5.65;3.72;;;;;;;20.21;69.23;100445.69;10469268;28;20047;-74
2022/07/10 07:25:41;;;;;;;6.95;4.00;;;;;;;20.25;69.24;100448.56;10469889;28;20491;-74
2022/07/10 07:30:44;;;;;;;5.22;3.90;;;;;;;20.34;70.10;100452.06;10452946;28;20037;-77
2022/07/10 07:35:47;;;;;;;5.93;4.40;;;;;;;20.33;69.64;100451.25;10481795;28;20041;-75
2022/07/10 07:40:49;;;;;;;7.00;4.38;;;;;;;20.37;70.60;100441.00;10447093;28;20053;-74
2022/07/10 07:45:51;;;;;;;5.93;3.95;;;;;;;20.77;69.95;100443.81;10474112;28;20049;-73
2022/07/10 07:50:53;;;;;;;3.85;3.15;;;;;;;21.42;66.73;100434.44;10481592;28;20044;-72
2022/07/10 07:55:56;;;;;;;3.90;3.40;;;;;;;21.74;64.88;100441.66;10480145;28;20037;-73
2022/07/10 08:00:59;;;;;;;2.97;2.70;;;;;;;21.84;65.23;100454.25;10445734;28;20469;-73
2022/07/10 08:06:01;;;;;;;3.38;2.70;;;;;;;21.82;63.51;100446.22;10477571;28;20049;-73
2022/07/10 08:11:03;;;;;;;3.92;3.10;;;;;;;21.73;63.07;100436.44;10475953;28;20045;-73
2022/07/10 08:16:06;;;;;;;2.67;2.47;;;;;;;21.67;64.10;100445.06;10463041;28;20049;-74
2022/07/10 08:21:08;;;;;;;3.72;3.42;;;;;;;21.91;63.98;100455.25;10497763;28;20419;-73
2022/07/10 08:26:10;;;;;;;3.58;3.28;;;;;;;22.16;63.23;100446.66;10498986;28;20052;-73
2022/07/10 08:31:13;;;;;;;7.43;3.72;;;;;;;22.30;61.61;100444.19;10499440;28;20045;-73
2022/07/10 08:36:15;;;;;;;4.70;3.72;;;;;;;22.53;61.74;100450.69;10465848;28;20044;-73
2022/07/10 08:41:17;;;;;;;4.18;3.72;;;;;;;22.29;62.73;100450.97;10476704;28;20052;-73
2022/07/10 08:46:20;;;;;;;3.58;3.15;;;;;;;22.44;64.53;100447.31;10464947;28;20052;-73
2022/07/10 08:51:52;;;;;;;4.43;3.97;;;;;;;22.34;62.86;100439.47;10481225;28;20049;-73
2022/07/10 08:57:01;;;;;;;6.22;3.65;;;;;;;22.20;62.69;100447.53;10419751;28;20049;-73
2022/07/10 09:02:04;;;;;;;4.47;3.90;;;;;;;22.08;62.25;100453.28;10457153;28;20058;-73
2022/07/10 09:07:07;;;;;;;4.72;4.25;;;;;;;22.29;62.67;100456.56;10439537;28;20037;-73
2022/07/10 09:12:09;;;;;;;4.60;4.10;;;;;;;22.26;62.37;100437.72;10460261;28;20040;-73
2022/07/10 09:17:12;;;;;;;4.00;3.55;;;;;;;22.59;61.17;100439.22;10437758;28;20041;-73
2022/07/10 09:22:15;;;;;;;3.97;3.30;;;;;;;22.71;60.62;100444.66;10432708;28;20045;-73
2022/07/10 09:27:18;;;;;;;4.53;3.40;;;;;;;22.52;59.82;100432.28;10432643;28;20428;-73
2022/07/10 09:32:21;;;;;;;3.22;2.92;;;;;;;22.31;60.29;100431.84;10435451;28;20041;-73
2022/07/10 09:37:25;;;;;;;3.17;2.88;;;;;;;22.24;61.36;100426.91;10482209;28;20516;-73
2022/07/10 09:42:36;;;;;;;3.28;3.00;;;;;;;22.24;61.38;100426.09;10432011;28;20041;-73
2022/07/10 09:47:58;;;;;;;4.05;3.75;;;;;;;22.19;60.98;100443.13;10449451;28;20041;-73
2022/07/10 09:53:09;;;;;;;3.15;2.85;;;;;;;22.10;60.92;100423.78;10476996;28;20130;-73
2022/07/10 09:58:17;;;;;;;3.50;3.20;;;;;;;22.05;62.11;100423.25;10472841;28;20413;-73
2022/07/10 10:03:19;;;;;;;;;;;;;;;22.01;61.41;100420.31;10473734;28;20048;-73
2022/07/10 10:08:26;;;;;;;4.18;3.35;;;;;;;21.95;61.94;100419.00;10472145;28;19927;-73
2022/07/10 10:13:33;;;;;;;3.03;2.72;;;;;;;21.96;63.14;100427.00;10472034;28;20405;-73
2022/07/10 10:18:36;;;;;;;3.53;3.15;;;;;;;21.86;62.49;100421.97;10471195;28;20037;-73
2022/07/10 10:23:39;;;;;;;3.83;3.53;;;;;;;21.87;62.46;100436.78;10468247;28;20067;-73
2022/07/10 10:28:42;;;;;;;3.85;3.42;;;;;;;21.84;63.35;100435.50;10471020;28;20056;-73
2022/07/10 10:33:46;;;;;;;3.35;3.05;;;;;;;21.68;63.46;100421.53;10489537;28;20041;-73
2022/07/10 10:38:51;;;;;;;4.68;3.67;;;;;;;21.55;63.19;100441.56;10489263;28;20056;-74
2022/07/10 10:44:23;;;;;;;4.18;3.72;;;;;;;21.43;64.39;100427.69;10488336;28;20056;-73
2022/07/10 10:49:26;;;;;;;3.95;1.70;;;;;;;21.39;65.05;100430.38;10469226;28;20049;-73
2022/07/10 10:54:30;;;;;;;3.85;2.85;;;;;;;21.34;65.04;100428.66;10488136;28;20059;-73
2022/07/10 10:59:51;;;;;;;4.20;3.80;;;;;;;21.25;64.95;100433.59;10469717;28;20057;-73
2022/07/10 11:05:17;;;;;;;4.32;3.92;;;;;;;21.18;65.22;100422.25;10466434;28;20520;-73
2022/07/10 11:10:35;;;;;;;6.15;4.25;;;;;;;21.15;64.30;100436.06;10487858;28;20048;-73
2022/07/10 11:15:47;;;;;;;;;;;;;;;21.08;65.67;100436.69;10486044;28;20522;-73
2022/07/10 11:20:53;;;;;;;5.82;5.32;;;;;;;21.01;65.08;100442.91;10428160;28;20051;-73
2022/07/10 11:26:09;;;;;;;3.20;2.85;;;;;;;20.88;65.20;100432.16;10445601;28;20120;-73
2022/07/10 11:31:12;;;;;;;4.53;3.95;;;;;;;20.85;66.17;100433.69;10445504;28;20048;-73
2022/07/10 11:36:19;;;;;;;3.95;3.60;;;;;;;20.88;66.85;100437.72;10445277;28;20046;-73
2022/07/10 11:41:23;;;;;;;5.90;4.80;;;;;;;20.84;66.92;100437.63;10444393;28;20042;-73
2022/07/10 11:46:30;;;;;;;7.18;5.18;;;;;;;20.81;67.03;100445.88;10427360;28;20056;-73
2022/07/10 11:51:37;;;;;;;6.75;5.55;;;;;;;20.73;67.38;100437.31;10427815;28;20049;-73
2022/07/10 11:56:42;;;;;;;6.10;5.50;;;;;;;20.87;67.16;100453.66;10411444;28;20049;-73
2022/07/10 12:01:49;;;;;;;6.15;4.45;;;;;;;20.79;68.06;100451.81;10426965;28;20447;-73
2022/07/10 12:06:53;;;;;;;5.43;4.60;;;;;;;20.82;68.26;100455.88;10444812;28;20399;-73
2022/07/10 12:12:04;;;;;;;2.15;1.95;;;;;;;20.85;68.07;100460.75;10474462;28;20072;-73
2022/07/10 12:17:13;;;;;;;3.55;2.95;;;;;;;20.81;66.24;100457.03;10468140;28;20041;-73
2022/07/10 12:22:15;;;;;;;3.67;2.85;;;;;;;20.77;65.41;100446.59;10486171;28;20048;-73
2022/07/10 12:27:39;;;;;;;2.60;2.40;;;;;;;20.77;63.49;100460.53;10486131;28;20506;-73
2022/07/10 12:32:42;;;;;;;3.95;2.60;;;;;;;20.73;63.45;100447.66;10485417;28;20056;-73
2022/07/10 12:37:48;;;;;;;4.50;2.65;;;;;;;20.63;64.08;100453.72;10467694;28;20048;-73
2022/07/10 12:43:01;;;;;;;3.53;2.70;;;;;;;20.54;64.77;100455.88;10485130;28;20052;-74
2022/07/10 12:48:05;;;;;;;4.93;3.72;;;;;;;20.47;66.04;100459.22;10485299;28;20393;-73
2022/07/10 12:53:09;;;;;;;4.85;3.00;;;;;;;20.35;66.71;100459.25;10480149;28;20040;-73
2022/07/10 12:58:12;;;;;;;3.42;3.00;;;;;;;20.27;66.92;100460.97;10474298;28;20645;-74
2022/07/10 13:03:22;;;;;;;5.03;3.30;;;;;;;20.25;67.40;100476.44;10488666;28;20044;-74
2022/07/10 13:08:24;;;;;;;3.63;2.35;;;;;;;20.24;67.64;100469.25;10491256;28;20047;-75
2022/07/10 13:13:28;;;;;;;4.10;3.70;;;;;;;20.28;67.04;100470.97;10489760;28;20044;-75
2022/07/10 13:18:31;;;;;;;4.85;3.38;;;;;;;20.28;67.19;100470.16;10463628;28;20038;-74
2022/07/10 13:23:33;;;;;;;3.70;3.30;;;;;;;20.35;66.95;100467.59;10451212;28;20042;-75
2022/07/10 13:28:35;;;;;;;3.25;3.03;;;;;;;20.38;66.54;100461.31;10450178;28;20681;-75
2022/07/10 13:33:38;;;;;;;4.60;2.60;;;;;;;20.31;67.10;100463.91;10449396;28;20041;-75
2022/07/10 13:38:42;;;;;;;2.90;2.70;;;;;;;20.22;66.64;100460.41;10476235;28;20059;-75
2022/07/10 13:43:44;;;;;;;3.47;2.28;;;;;;;20.08;65.92;100467.16;10490735;28;20052;-75
2022/07/10 13:48:46;;;;;;;2.10;1.90;;;;;;;19.73;66.61;100469.59;10473597;28;20045;-75
2022/07/10 13:53:48;;;;;;;1.90;1.70;;;;;;;19.40;65.18;100475.19;10489591;28;20041;-75
2022/07/10 13:58:52;;;;;;;1.83;1.50;;;;;;;19.04;66.53;100494.56;10477109;28;20029;-75
2022/07/10 14:03:54;;;;;;;1.55;1.40;;;;;;;18.60;69.40;100485.75;10467719;28;20041;-75
2022/07/10 14:08:56;;;;;;;1.90;1.70;;;;;;;18.19;72.87;100492.88;10477806;28;20049;-74
2022/07/10 14:14:00;;;;;;;2.03;1.50;;;;;;;17.87;73.59;100499.09;10481489;28;20044;-74
2022/07/10 14:19:03;;;;;;;1.95;1.48;;;;;;;17.85;75.87;100487.50;10482061;28;20036;-75
2022/07/10 14:24:06;;;;;;;2.30;1.67;;;;;;;17.64;76.17;100476.31;10469253;28;20048;-75
2022/07/10 14:29:08;;;;;;;2.70;1.92;;;;;;;17.42;76.70;100467.09;10467944;28;20045;-76
2022/07/10 14:34:10;;;;;;;3.90;1.80;;;;;;;17.23;77.22;100461.09;10469215;28;20048;-78
2022/07/10 14:39:13;;;;;;;1.92;1.55;;;;;;;17.11;77.45;100458.19;10485936;28;20044;-75
2022/07/10 14:44:15;;;;;;;3.40;2.00;;;;;;;17.00;76.82;100463.25;10487074;28;20053;-76
2022/07/10 14:49:17;;;;;;;4.20;2.53;;;;;;;16.94;78.34;100464.56;10454706;28;20037;-75
2022/07/10 14:54:20;;;;;;;5.15;2.55;;;;;;;16.83;79.78;100447.50;10485602;28;20071;-75
2022/07/10 14:59:23;;;;;;;4.85;2.80;;;;;;;16.90;80.72;100437.84;10480311;28;20044;-75
2022/07/10 15:04:25;;;;;;;5.20;2.83;;;;;;;16.97;81.59;100441.75;10483168;28;20411;-75
2022/07/10 15:09:27;;;;;;;6.25;2.95;;;;;;;17.16;82.79;100439.41;10486014;28;20044;-75
2022/07/10 15:14:30;;;;;;;5.35;3.50;;;;;;;17.24;83.36;100445.28;10461757;28;20064;-75
2022/07/10 15:19:32;;;;;;;7.72;3.28;;;;;;;17.19;83.47;100443.50;10465370;28;20045;-75
2022/07/10 15:24:34;;;;;;;4.28;2.58;;;;;;;17.19;83.97;100446.28;10481654;28;20056;-74
2022/07/10 15:29:37;;;;;;;4.55;2.95;;;;;;;17.28;83.75;100447.06;10451000;28;20503;-74
2022/07/10 15:34:40;;;;;;;6.35;2.72;;;;;;;17.43;83.92;100442.94;10478951;28;20566;-74
2022/07/10 15:39:42;;;;;;;8.07;3.20;;;;;;;17.51;84.03;100442.06;10481878;28;20060;-74
2022/07/10 15:44:46;;;;;;;4.05;3.38;;;;;;;17.67;83.26;100451.47;10480990;28;20045;-74
2022/07/10 15:49:49;;;;;;;4.25;3.17;;;;;;;17.77;82.67;100456.69;10483182;28;20041;-74
2022/07/10 15:54:52;;;;;;;3.58;3.28;;;;;;;17.90;82.14;100457.63;10482942;28;20044;-77
2022/07/10 15:59:55;;;;;;;5.35;3.30;;;;;;;17.98;82.19;100459.53;10464928;28;20041;-76
2022/07/10 16:04:58;;;;;;;6.57;4.03;;;;;;;18.01;81.66;100463.59;10481755;28;20478;-74
2022/07/10 16:10:00;;;;;;;5.43;2.90;;;;;;;18.12;81.52;100467.63;10484180;28;20052;-74
2022/07/10 16:15:03;;;;;;;3.80;3.10;;;;;;;18.25;81.20;100463.78;10465491;28;20045;-74
2022/07/10 16:20:08;;;;;;;4.70;3.60;;;;;;;18.36;80.93;100462.22;10443948;28;20049;-74
2022/07/10 16:30:31;;;;;;;3.97;3.35;;;;;;;18.57;81.51;100467.81;10452041;28;20057;-74
2022/07/10 16:35:34;;;;;;;5.57;4.10;;;;;;;18.57;80.77;100459.47;10456536;28;20033;-74
2022/07/10 16:40:36;;;;;;;8.82;4.40;;;;;;;18.61;81.92;100448.47;10452705;28;20052;-74
2022/07/10 16:45:42;;;;;;;4.70;3.50;;;;;;;18.62;81.70;100447.31;10451387;28;20056;-74
2022/07/10 16:50:45;;;;;;;3.93;2.87;;;;;;;18.50;79.63;100450.84;10454325;28;20037;-75
2022/07/10 16:55:47;;;;;;;5.00;3.42;;;;;;;18.41;78.69;100438.19;10458156;28;20048;-74
2022/07/10 17:00:49;;;;;;;3.90;2.92;;;;;;;18.34;78.38;100438.69;10440929;28;20041;-74
2022/07/10 17:05:52;;;;;;;3.13;2.50;;;;;;;18.27;79.39;100444.00;10455671;28;20049;-77
2022/07/10 17:10:57;;;;;;;4.60;3.50;;;;;;;18.20;79.48;100446.47;10473736;28;20059;-75
2022/07/10 17:15:59;;;;;;;5.43;3.08;;;;;;;18.15;80.49;100450.28;10465774;28;20034;-77
2022/07/10 17:21:01;;;;;;;5.15;3.50;;;;;;;18.10;80.51;100458.81;10471475;28;20045;-76
2022/07/10 17:26:04;;;;;;;3.95;3.45;;;;;;;18.16;79.12;100467.75;10481788;28;20033;-75
2022/07/10 17:31:06;;;;;;;4.40;3.15;;;;;;;18.19;78.60;100469.84;10477191;28;20404;-77
2022/07/10 17:36:08;;;;;;;4.45;3.20;;;;;;;18.17;77.83;100467.41;10486046;28;20554;-77
2022/07/10 17:41:10;;;;;;;3.20;2.90;;;;;;;18.16;77.95;100468.56;10458772;28;20052;-79
2022/07/10 17:46:13;;;;;;;3.55;3.17;;;;;;;18.16;78.04;100476.88;10490194;28;20049;-77
2022/07/10 17:51:15;;;;;;;6.30;3.70;;;;;;;18.22;77.85;100481.13;10488562;28;20037;-77
2022/07/10 17:56:18;;;;;;;5.72;3.50;;;;;;;18.30;77.90;100487.75;10451584;28;20435;-79
2022/07/10 18:01:21;;;;;;;4.63;3.60;;;;;;;18.38;77.62;100500.75;10472498;28;20139;-80
2022/07/10 18:06:23;;;;;;;4.78;3.88;;;;;;;18.31;79.12;100503.28;10490306;28;20052;-82
2022/07/10 18:11:26;;;;;;;4.57;3.50;;;;;;;18.30;79.44;100502.47;10485924;28;20057;-80
2022/07/10 18:16:28;;;;;;;5.13;3.92;;;;;;;18.31;78.85;100515.19;10453727;28;20037;-80
2022/07/10 18:21:32;;;;;;;5.45;3.78;;;;;;;18.28;78.69;100512.28;10482072;28;20061;-83
2022/07/10 18:26:34;;;;;;;6.20;4.25;;;;;;;18.29;78.77;100520.28;10475667;28;20047;-80
2022/07/10 18:31:37;;;;;;;7.05;4.55;;;;;;;18.34;78.99;100516.47;10487242;28;20056;-85
2022/07/10 18:36:43;;;;;;;5.30;4.47;;;;;;;18.37;79.07;100533.28;10489078;28;20067;-83
2022/07/10 18:41:46;;;;;;;5.07;4.25;;;;;;;18.32;79.42;100527.94;10488741;28;20419;-81
2022/07/10 18:46:48;;;;;;;6.07;3.80;;;;;;;18.29;79.85;100525.03;10481724;28;20041;-82
2022/07/10 18:51:51;;;;;;;6.50;3.83;;;;;;;18.22;80.45;100533.06;10488372;28;20065;-80
2022/07/10 18:56:58;;;;;;;6.22;3.95;;;;;;;18.18;80.93;100541.25;10455487;28;20037;-81
2022/07/10 19:02:01;;;;;;;4.30;3.72;;;;;;;18.18;80.44;100532.09;10477393;28;20044;-85
2022/07/10 19:07:04;;;;;;;4.72;4.22;;;;;;;18.20;80.98;100530.59;10488590;28;20043;-84
2022/07/10 19:12:07;;;;;;;6.85;4.60;;;;;;;18.20;80.89;100538.94;10470789;28;20052;-78
2022/07/10 19:17:10;;;;;;;5.60;4.30;;;;;;;18.12;81.42;100536.22;10487146;28;20521;-83
2022/07/10 19:22:14;;;;;;;6.03;4.82;;;;;;;18.07;82.51;100534.47;10460120;28;20049;-81
2022/07/10 19:27:16;;;;;;;4.70;4.00;;;;;;;18.02;82.19;100520.75;10450979;28;20037;-77
2022/07/10 19:32:19;;;;;;;6.20;4.38;;;;;;;18.00;82.95;100525.81;10477369;28;20033;-80
2022/07/10 19:37:21;;;;;;;6.28;4.90;;;;;;;17.98;82.86;100530.91;10458450;28;20045;-79
2022/07/10 19:42:24;;;;;;;7.78;5.50;;;;;;;17.97;83.14;100530.06;10447271;28;20045;-85
2022/07/10 19:47:27;;;;;;;6.78;5.20;;;;;;;17.97;83.62;100529.25;10428388;28;20037;-84
2022/07/10 19:52:33;;;;;;;7.82;4.95;;;;;;;17.94;83.49;100524.38;10427900;28;20041;-75
2022/07/10 19:57:41;;;;;;;5.82;4.38;;;;;;;17.90;84.20;100523.44;10473877;28;20053;-74
2022/07/10 20:02:44;;;;;;;5.70;4.32;;;;;;;17.82;84.10;100521.50;10485330;28;20052;-75
2022/07/10 20:07:47;;;;;;;12.13;5.57;;;;;;;17.74;84.27;100535.06;10467688;28;20041;-79
2022/07/10 20:12:50;;;;;;;7.53;5.35;;;;;;;17.69;84.22;100529.69;10485675;28;20036;-80
2022/07/10 20:17:52;;;;;;;6.93;5.13;;;;;;;17.67;83.90;100523.63;10486132;28;20060;-82
2022/07/10 20:22:54;;;;;;;7.60;5.40;;;;;;;17.66;84.17;100522.00;10486174;28;20443;-76
2022/07/10 20:27:57;;;;;;;5.97;5.03;;;;;;;17.61;84.19;100530.50;10467179;28;20041;-77
2022/07/10 20:33:00;;;;;;;6.57;4.97;;;;;;;17.58;83.93;100541.47;10465906;28;20048;-78
2022/07/10 20:38:03;;;;;;;7.88;5.15;;;;;;;17.54;84.47;100532.19;10485026;28;20049;-78
2022/07/10 20:43:06;;;;;;;7.22;5.32;;;;;;;17.52;84.60;100523.34;10485395;28;20416;-78
2022/07/10 20:48:09;;;;;;;5.97;5.38;;;;;;;17.55;84.55;100528.25;10484572;28;20044;-75
2022/07/10 20:53:12;;;;;;;7.72;5.88;;;;;;;17.52;84.65;100520.56;10467584;28;20041;-78
2022/07/10 20:58:19;;;;;;;6.90;5.72;;;;;;;17.47;84.83;100510.47;10485410;28;20041;-78
2022/07/10 21:03:21;;;;;;;8.85;6.57;;;;;;;17.45;84.61;100505.25;10450560;28;20057;-77
2022/07/10 21:08:25;;;;;;;8.23;6.45;;;;;;;17.47;84.54;100500.19;10467532;28;20059;-77
2022/07/10 21:13:27;;;;;;;8.50;6.28;;;;;;;17.48;84.84;100495.44;10482257;28;20492;-77
2022/07/10 21:18:30;;;;;;;9.13;5.90;;;;;;;17.52;84.80;100499.19;10451076;28;20499;-77
2022/07/10 21:23:33;;;;;;;12.07;6.35;;;;;;;17.55;85.37;100487.44;10490485;28;20534;-78
2022/07/10 21:28:36;;;;;;;7.35;6.10;;;;;;;17.54;85.31;100501.66;10469882;28;20041;-77
2022/07/10 21:33:38;;;;;;;9.32;6.05;;;;;;;17.54;85.32;100496.91;10489808;28;20049;-75
2022/07/10 21:38:41;;;;;;;7.43;5.95;;;;;;;17.51;85.26;100514.22;10466318;28;20051;-75
2022/07/10 21:43:44;;;;;;;8.65;7.43;;;;;;;17.52;85.13;100506.69;10486076;28;20423;-75
2022/07/10 21:48:47;;;;;;;11.60;7.10;;;;;;;17.53;85.41;100524.97;10469490;28;20048;-75
2022/07/10 21:53:50;;;;;;;10.00;7.45;;;;;;;17.47;85.67;100544.56;10487862;28;20041;-75
2022/07/10 21:58:57;;;;;;;7.60;6.35;;;;;;;17.38;85.94;100556.84;10487387;28;20048;-76
2022/07/10 22:04:00;;;;;;;9.68;6.43;;;;;;;17.32;85.99;100560.91;10482592;28;20532;-76
2022/07/10 22:09:03;;;;;;;10.25;7.15;;;;;;;17.34;85.96;100562.22;10483996;28;20041;-75
2022/07/10 22:14:05;;;;;;;10.77;7.65;;;;;;;17.31;86.13;100562.06;10483652;28;20041;-77
2022/07/10 22:19:07;;;;;;;11.20;7.32;;;;;;;17.23;87.03;100565.66;10486512;28;20045;-76
2022/07/10 22:24:11;;;;;;;11.60;7.00;;;;;;;17.16;87.50;100560.59;10485674;28;20044;-77
2022/07/10 22:29:13;;;;;;;10.32;8.02;;;;;;;17.08;87.15;100569.75;10484832;28;20048;-76
2022/07/10 22:34:15;;;;;;;12.20;7.22;;;;;;;16.99;87.58;100561.41;10467629;28;20041;-76
2022/07/10 22:39:18;;;;;;;12.52;7.18;;;;;;;16.95;87.79;100562.41;10484755;28;20037;-76
2022/07/10 22:44:22;;;;;;;10.18;7.53;;;;;;;16.91;88.25;100564.19;10482458;28;20061;-76
2022/07/10 22:49:24;;;;;;;11.55;8.10;;;;;;;16.84;88.22;100571.06;10464097;28;20044;-75
2022/07/10 22:54:27;;;;;;;9.32;6.97;;;;;;;16.80;88.50;100574.78;10487477;28;20041;-75
2022/07/10 22:59:29;;;;;;;11.75;7.72;;;;;;;16.86;88.30;100581.81;10449795;28;20040;-75
2022/07/10 23:04:32;;;;;;;10.95;7.10;;;;;;;16.84;88.36;100582.16;10446590;28;20056;-75
2022/07/10 23:09:34;;;;;;;9.18;7.20;;;;;;;16.79;88.75;100575.91;10464265;28;20041;-76
2022/07/10 23:14:36;;;;;;;10.30;7.22;;;;;;;16.76;88.67;100573.81;10529490;28;20051;-76
2022/07/10 23:19:39;;;;;;;8.55;7.22;;;;;;;16.75;88.96;100561.09;10482191;28;20060;-76
2022/07/10 23:24:41;;;;;;;8.73;7.13;;;;;;;16.78;89.04;100564.03;10487339;28;20056;-75